Ischgl, Austria
Current Conditions -  °F | °C
As of 2:55 AM on Wednesday 22 Oct 2014 (Local Time) from LIVE Reporting Station
Overcast Overcast  
Wind Chill: 32°   Ceiling: 2000
Heat Index: 37°   Visibility: 6mi
Dew Point: 28°   Wind: 7mph
Humidity: 70%   Direction: 10°N
Pressure: 29.85"   Gusts: 18mph
Location:  47.01°N, 10.29°E
Report Text: LIVE 220055Z 01006G16KT 9999 OVC020 03/M02 Q1011 RMK OVC VIS MIN 9999
Loading
Personal Weather Stations






























Interactive Weather Map
Tropical Storm Tracking
New forecast layout! Learn more

10-Day Weather Forecast

Advertisements
Track Severe Weather on mobile